createdAt,value
2022-08-19T00:01:53.199Z,10.82
2022-08-19T00:06:47.872Z,11.50
2022-08-19T00:09:16.415Z,11.68
2022-08-19T00:11:43.561Z,11.52
2022-08-19T00:14:12.322Z,11.50
2022-08-19T00:16:39.619Z,10.90
2022-08-19T00:19:06.746Z,10.27
2022-08-19T00:21:33.175Z,11.15
2022-08-19T00:23:59.670Z,10.77
2022-08-19T00:26:27.614Z,10.40
2022-08-19T00:28:54.477Z,10.85
2022-08-19T00:31:21.688Z,10.95
2022-08-19T00:33:50.209Z,11.75
2022-08-19T00:36:17.029Z,11.30
2022-08-19T00:38:43.849Z,11.20
2022-08-19T00:41:15.632Z,11.02
2022-08-19T00:43:42.128Z,11.48
2022-08-19T00:46:08.987Z,11.55
2022-08-19T00:48:36.996Z,10.48
2022-08-19T00:51:05.761Z,10.90
2022-08-19T00:53:32.833Z,11.23
2022-08-19T00:56:00.572Z,11.45
2022-08-19T00:58:30.239Z,11.25
2022-08-19T01:00:56.697Z,11.93
2022-08-19T01:03:23.506Z,11.95
2022-08-19T01:05:51.128Z,10.70
2022-08-19T01:08:18.947Z,12.30
2022-08-19T01:10:53.558Z,11.43
2022-08-19T01:13:21.590Z,11.35
2022-08-19T01:15:52.455Z,10.75
2022-08-19T01:18:20.120Z,10.88
2022-08-19T01:20:47.156Z,10.98
2022-08-19T01:23:14.375Z,11.45
2022-08-19T01:25:52.313Z,11.73
2022-08-19T01:28:33.988Z,11.75
2022-08-19T01:31:08.504Z,12.10
2022-08-19T01:33:35.263Z,13.02
2022-08-19T01:36:07.427Z,13.07
2022-08-19T01:38:37.419Z,13.18
2022-08-19T01:41:12.214Z,13.65
2022-08-19T01:43:39.067Z,12.93
2022-08-19T01:46:25.691Z,12.23
2022-08-19T01:48:52.130Z,12.60
2022-08-19T01:51:18.837Z,13.07
2022-08-19T01:53:48.410Z,13.15
2022-08-19T01:56:14.886Z,12.68
2022-08-19T01:58:51.729Z,12.82
2022-08-19T02:01:18.577Z,12.70
2022-08-19T02:03:45.026Z,13.52
2022-08-19T02:06:11.585Z,13.88
2022-08-19T02:08:39.310Z,13.43
2022-08-19T02:11:06.815Z,13.43
2022-08-19T02:13:34.546Z,13.88
2022-08-19T02:16:01.716Z,13.93
2022-08-19T02:18:31.013Z,13.02
2022-08-19T02:20:57.472Z,13.30
2022-08-19T02:23:23.944Z,13.43
2022-08-19T02:25:50.745Z,14.57
2022-08-19T02:28:18.970Z,13.30
2022-08-19T02:30:45.598Z,12.60
2022-08-19T02:33:12.035Z,13.95
2022-08-19T02:35:42.541Z,13.65
2022-08-19T02:38:27.177Z,13.48
2022-08-19T02:40:58.648Z,13.65
2022-08-19T02:43:26.632Z,14.65
2022-08-19T02:45:53.300Z,15.25
2022-08-19T02:48:21.435Z,14.98
2022-08-19T02:50:53.708Z,14.55
2022-08-19T02:53:20.375Z,13.93
2022-08-19T02:55:47.969Z,15.63
2022-08-19T02:58:15.882Z,14.15
2022-08-19T03:00:50.193Z,14.73
2022-08-19T03:03:17.415Z,15.68
2022-08-19T03:05:48.470Z,15.57
2022-08-19T03:08:25.084Z,16.73
2022-08-19T03:10:52.773Z,16.85
2022-08-19T03:13:19.250Z,15.82
2022-08-19T03:15:47.738Z,15.60
2022-08-19T03:18:14.755Z,16.65
2022-08-19T03:20:46.731Z,16.08
2022-08-19T03:23:16.208Z,15.80
2022-08-19T03:25:45.041Z,16.88
2022-08-19T03:28:12.888Z,16.52
2022-08-19T03:30:41.826Z,16.52
2022-08-19T03:33:17.962Z,17.05
2022-08-19T03:35:47.108Z,17.92
2022-08-19T03:38:13.574Z,19.00
2022-08-19T03:40:40.028Z,19.98
2022-08-19T03:43:06.960Z,21.83
2022-08-19T03:45:33.422Z,21.85
2022-08-19T03:47:59.904Z,20.20
2022-08-19T03:50:26.355Z,20.05
2022-08-19T03:52:53.357Z,21.05
2022-08-19T03:55:20.179Z,19.48
2022-08-19T03:57:49.400Z,19.27
2022-08-19T04:00:16.390Z,19.05
2022-08-19T04:02:42.970Z,18.40
2022-08-19T04:05:27.717Z,18.10
2022-08-19T04:07:54.913Z,20.48
2022-08-19T04:10:21.517Z,20.25
2022-08-19T04:12:47.982Z,20.10
2022-08-19T04:15:16.278Z,19.73
2022-08-19T04:17:42.739Z,20.30
2022-08-19T04:20:09.401Z,20.35
2022-08-19T04:22:35.838Z,20.08
2022-08-19T04:25:02.360Z,20.63
2022-08-19T04:27:29.252Z,21.67
2022-08-19T04:29:56.069Z,22.23
2022-08-19T04:32:23.663Z,21.17
2022-08-19T04:35:03.221Z,22.42
2022-08-19T04:37:36.860Z,23.13
2022-08-19T04:40:24.569Z,22.65
2022-08-19T04:42:51.032Z,22.15
2022-08-19T04:45:17.748Z,23.67
2022-08-19T04:47:47.425Z,23.00
2022-08-19T04:50:24.215Z,22.70
2022-08-19T04:52:52.274Z,21.92
2022-08-19T04:55:18.990Z,23.05
2022-08-19T04:57:45.483Z,23.65
2022-08-19T05:00:12.358Z,21.92
2022-08-19T05:02:39.693Z,23.80
2022-08-19T05:05:07.312Z,22.38
2022-08-19T05:07:34.092Z,22.63
2022-08-19T05:10:00.530Z,22.23
2022-08-19T05:12:28.911Z,21.02
2022-08-19T05:14:57.592Z,21.40
2022-08-19T05:17:28.404Z,21.10
2022-08-19T05:20:15.469Z,22.70
2022-08-19T05:22:43.579Z,22.20
2022-08-19T05:25:13.839Z,22.95
2022-08-19T05:27:41.792Z,22.77
2022-08-19T05:30:08.801Z,22.02
2022-08-19T05:32:35.445Z,22.02
2022-08-19T05:35:01.956Z,23.30
2022-08-19T05:37:28.600Z,22.75
2022-08-19T05:39:55.821Z,24.13
2022-08-19T05:42:23.779Z,22.50
2022-08-19T05:44:50.555Z,23.08
2022-08-19T05:47:17.516Z,22.25
2022-08-19T05:49:43.993Z,23.38
2022-08-19T05:52:13.565Z,23.15
2022-08-19T05:54:43.668Z,22.83
2022-08-19T05:57:11.758Z,23.25
2022-08-19T05:59:40.004Z,22.63
2022-08-19T06:02:07.798Z,21.55
2022-08-19T06:04:34.559Z,21.65
2022-08-19T06:07:12.380Z,20.38
2022-08-19T06:09:40.289Z,19.60
2022-08-19T06:12:07.381Z,18.95
2022-08-19T06:14:40.420Z,18.33
2022-08-19T06:17:08.853Z,16.83
2022-08-19T06:19:35.379Z,16.75
2022-08-19T06:22:07.638Z,16.05
2022-08-19T06:24:34.079Z,13.40
2022-08-19T06:27:01.846Z,12.30
2022-08-19T06:29:28.834Z,12.90
2022-08-19T06:31:57.264Z,10.82
2022-08-19T06:34:24.036Z,12.13
2022-08-19T06:36:52.160Z,11.57
2022-08-19T06:39:21.737Z,12.13
2022-08-19T06:41:53.330Z,9.50
2022-08-19T06:44:23.507Z,10.85
2022-08-19T06:46:53.673Z,9.35
2022-08-19T06:49:22.813Z,10.00
2022-08-19T06:51:50.140Z,10.05
2022-08-19T06:54:20.242Z,10.38
2022-08-19T06:56:47.471Z,10.02
2022-08-19T06:59:17.565Z,9.73
2022-08-19T07:01:52.592Z,10.25
2022-08-19T07:04:27.187Z,9.05
2022-08-19T07:07:21.254Z,9.60
2022-08-19T07:09:57.136Z,9.25
2022-08-19T07:12:28.074Z,8.80
2022-08-19T07:14:56.136Z,8.50
2022-08-19T07:17:22.655Z,7.53
2022-08-19T07:19:51.281Z,6.85
2022-08-19T07:22:21.638Z,6.93
2022-08-19T07:24:51.513Z,7.63
2022-08-19T07:27:24.116Z,7.35
2022-08-19T07:29:55.680Z,7.43
2022-08-19T07:32:23.006Z,7.22
2022-08-19T07:34:49.472Z,7.43
2022-08-19T07:37:17.115Z,7.20
2022-08-19T07:39:43.655Z,6.10
2022-08-19T07:42:13.582Z,4.90
2022-08-19T07:47:07.840Z,5.00
2022-08-19T07:49:44.754Z,4.20
2022-08-19T07:52:11.455Z,4.15
2022-08-19T07:54:40.053Z,4.75
2022-08-19T07:57:07.935Z,4.28
2022-08-19T07:59:34.814Z,4.97
2022-08-19T08:02:01.837Z,4.60
2022-08-19T08:04:48.036Z,4.13
2022-08-19T08:07:33.328Z,4.35
2022-08-19T08:10:03.171Z,4.20
2022-08-19T08:12:42.153Z,4.60
2022-08-19T08:15:17.161Z,4.35
2022-08-19T08:17:49.096Z,3.90
2022-08-19T08:20:19.421Z,3.78
2022-08-19T08:23:06.003Z,3.58
2022-08-19T08:25:34.344Z,3.70
2022-08-19T08:28:02.574Z,3.33
2022-08-19T08:30:31.291Z,2.60
2022-08-19T08:32:59.854Z,2.47
2022-08-19T08:35:26.449Z,4.20
2022-08-19T08:37:54.535Z,3.40
2022-08-19T08:40:49.671Z,3.85
2022-08-19T08:43:27.755Z,3.13
2022-08-19T08:46:12.321Z,2.78
2022-08-19T08:48:59.129Z,3.25
2022-08-19T08:54:19.711Z,2.65
2022-08-19T08:56:47.092Z,3.13
2022-08-19T08:59:20.187Z,2.38
2022-08-19T09:01:46.723Z,2.45
2022-08-19T09:04:13.543Z,2.08
2022-08-19T09:06:53.188Z,1.90
2022-08-19T09:09:33.324Z,1.77
2022-08-19T09:12:06.769Z,2.00
2022-08-19T09:14:51.094Z,1.98
2022-08-19T09:17:18.533Z,2.03
2022-08-19T09:19:58.693Z,2.25
2022-08-19T09:22:27.676Z,2.55
2022-08-19T09:24:55.147Z,2.83
2022-08-19T09:27:41.918Z,2.60
2022-08-19T09:30:14.015Z,2.15
2022-08-19T09:32:43.342Z,1.90
2022-08-19T09:35:10.203Z,2.05
2022-08-19T09:37:37.511Z,2.08
2022-08-19T09:40:05.248Z,1.77
2022-08-19T09:42:35.369Z,2.20
2022-08-19T09:45:02.202Z,2.10
2022-08-19T09:47:31.693Z,2.38
2022-08-19T09:49:58.973Z,2.08
2022-08-19T09:52:25.860Z,2.00
2022-08-19T09:54:59.383Z,2.05
2022-08-19T09:57:25.844Z,2.30
2022-08-19T09:59:52.335Z,2.17
2022-08-19T10:02:22.206Z,2.22
2022-08-19T10:05:07.697Z,1.92
2022-08-19T10:07:36.415Z,2.17
2022-08-19T10:10:07.065Z,1.80
2022-08-19T10:12:35.286Z,1.88
2022-08-19T10:15:02.388Z,2.22
2022-08-19T10:17:33.446Z,2.00
2022-08-19T10:20:00.752Z,1.97
2022-08-19T10:22:27.520Z,2.10
2022-08-19T10:24:54.477Z,1.67
2022-08-19T10:27:21.075Z,1.67
2022-08-19T10:29:48.752Z,1.67
2022-08-19T10:32:15.514Z,1.80
2022-08-19T10:34:48.688Z,2.00
2022-08-19T10:37:29.173Z,2.10
2022-08-19T10:39:59.260Z,1.85
2022-08-19T10:42:25.849Z,1.70
2022-08-19T10:44:52.302Z,2.10
2022-08-19T10:47:24.738Z,1.80
2022-08-19T10:50:12.273Z,1.92
2022-08-19T10:52:49.307Z,2.10
2022-08-19T10:55:35.692Z,2.05
2022-08-19T10:58:02.857Z,2.63
2022-08-19T11:00:30.108Z,2.13
2022-08-19T11:02:56.757Z,2.60
2022-08-19T11:05:24.328Z,2.53
2022-08-19T11:07:51.363Z,2.25
2022-08-19T11:10:21.755Z,2.00
2022-08-19T11:12:48.794Z,1.92
2022-08-19T11:15:15.731Z,2.25
2022-08-19T11:17:42.505Z,2.15
2022-08-19T11:20:11.315Z,2.03
2022-08-19T11:22:41.456Z,2.25
2022-08-19T11:25:09.865Z,2.22
2022-08-19T11:27:40.564Z,2.15
2022-08-19T11:30:08.580Z,2.13
2022-08-19T11:32:39.909Z,1.80
2022-08-19T11:35:06.781Z,1.90
2022-08-19T11:37:38.981Z,2.10
2022-08-19T11:40:06.488Z,1.80
2022-08-19T11:42:51.736Z,1.70
2022-08-19T11:45:18.364Z,1.52
2022-08-19T11:47:45.059Z,1.50
2022-08-19T11:50:11.514Z,1.73
2022-08-19T11:52:38.093Z,1.40
2022-08-19T11:55:05.142Z,1.30
2022-08-19T11:57:32.141Z,1.52
2022-08-19T11:59:58.640Z,1.40
2022-08-19T12:02:25.045Z,1.58
2022-08-19T12:04:51.456Z,1.60
2022-08-19T12:07:17.943Z,1.50
2022-08-19T12:09:44.429Z,1.50
2022-08-19T12:12:12.552Z,1.45
2022-08-19T12:14:39.474Z,1.55
2022-08-19T12:17:08.373Z,1.70
2022-08-19T12:19:37.698Z,1.55
2022-08-19T12:22:04.310Z,1.60
2022-08-19T12:24:33.927Z,1.73
2022-08-19T12:27:02.901Z,1.50
2022-08-19T12:29:30.418Z,1.58
2022-08-19T12:32:05.047Z,1.80
2022-08-19T12:34:32.728Z,1.55
2022-08-19T12:37:01.725Z,2.20
2022-08-19T12:39:28.350Z,2.20
2022-08-19T12:41:55.249Z,2.00
2022-08-19T12:44:31.815Z,2.05
2022-08-19T12:47:00.156Z,1.67
2022-08-19T12:49:54.491Z,1.80
2022-08-19T12:52:23.418Z,2.08
2022-08-19T12:54:53.800Z,1.60
2022-08-19T12:57:21.212Z,1.63
2022-08-19T12:59:54.439Z,1.75
2022-08-19T13:02:21.353Z,1.67
2022-08-19T13:04:47.922Z,1.58
2022-08-19T13:07:14.497Z,1.90
2022-08-19T13:09:43.563Z,2.00
2022-08-19T13:12:13.812Z,2.08
2022-08-19T13:14:41.344Z,2.17
2022-08-19T13:17:09.274Z,1.70
2022-08-19T13:19:37.590Z,1.80
2022-08-19T13:22:04.039Z,1.92
2022-08-19T13:24:33.616Z,1.98
2022-08-19T13:27:01.657Z,1.85
2022-08-19T13:29:46.659Z,2.03
2022-08-19T13:32:31.921Z,2.20
2022-08-19T13:34:58.587Z,2.15
2022-08-19T13:37:42.176Z,2.22
2022-08-19T13:40:34.225Z,2.15
2022-08-19T13:43:04.042Z,2.00
2022-08-19T13:45:44.594Z,1.90
2022-08-19T13:48:11.206Z,1.90
2022-08-19T13:50:43.397Z,2.10
2022-08-19T13:53:11.597Z,2.20
2022-08-19T13:55:40.347Z,2.15
2022-08-19T13:58:06.904Z,2.20
2022-08-19T14:00:37.408Z,2.15
2022-08-19T14:03:09.050Z,1.95
2022-08-19T14:05:35.855Z,1.98
2022-08-19T14:08:02.680Z,2.22
2022-08-19T14:10:29.332Z,2.13
2022-08-19T14:12:59.036Z,2.20
2022-08-19T14:15:26.057Z,2.03
2022-08-19T14:17:53.203Z,2.00
2022-08-19T14:20:19.758Z,2.20
2022-08-19T14:22:47.621Z,2.22
2022-08-19T14:25:21.139Z,1.88
2022-08-19T14:27:48.281Z,2.35
2022-08-19T14:30:19.067Z,2.50
2022-08-19T14:32:45.625Z,1.83
2022-08-19T14:35:13.578Z,2.00
2022-08-19T14:37:45.756Z,1.98
2022-08-19T14:40:14.768Z,2.20
2022-08-19T14:42:42.843Z,2.17
2022-08-19T14:45:10.761Z,2.30
2022-08-19T14:47:39.604Z,2.50
2022-08-19T14:50:10.614Z,2.28
2022-08-19T14:52:44.366Z,2.60
2022-08-19T14:55:10.862Z,2.00
2022-08-19T14:57:37.453Z,2.10
2022-08-19T15:00:05.301Z,1.77
2022-08-19T15:02:34.427Z,2.17
2022-08-19T15:05:02.588Z,2.08
2022-08-19T15:07:30.268Z,2.08
2022-08-19T15:09:57.483Z,2.00
2022-08-19T15:12:24.919Z,1.88
2022-08-19T15:14:51.968Z,2.03
2022-08-19T15:17:25.823Z,1.85
2022-08-19T15:20:11.123Z,1.85
2022-08-19T15:22:37.568Z,1.80
2022-08-19T15:25:05.520Z,2.03
2022-08-19T15:27:32.813Z,1.90
2022-08-19T15:30:01.655Z,1.90
2022-08-19T15:32:31.083Z,2.30
2022-08-19T15:34:57.559Z,2.33
2022-08-19T15:37:25.071Z,2.22
2022-08-19T15:39:51.680Z,2.53
2022-08-19T15:42:29.588Z,1.85
2022-08-19T15:45:00.413Z,2.08
2022-08-19T15:47:35.273Z,2.03
2022-08-19T15:50:23.922Z,1.90
2022-08-19T15:52:55.953Z,2.15
2022-08-19T15:58:21.865Z,2.10
2022-08-19T16:01:20.785Z,1.92
2022-08-19T16:04:14.167Z,1.90
2022-08-19T16:06:53.538Z,2.30
2022-08-19T16:09:27.048Z,2.15
2022-08-19T16:12:01.810Z,2.22
2022-08-19T16:14:30.639Z,1.92
2022-08-19T16:16:57.126Z,2.05
2022-08-19T16:19:24.342Z,1.85
2022-08-19T16:21:52.914Z,1.85
2022-08-19T16:24:22.396Z,2.22
2022-08-19T16:26:49.175Z,2.00
2022-08-19T16:29:22.108Z,2.72
2022-08-19T16:32:01.165Z,2.60
2022-08-19T16:34:29.560Z,2.25
2022-08-19T16:36:55.991Z,2.00
2022-08-19T16:39:23.646Z,1.85
2022-08-19T16:41:50.881Z,2.10
2022-08-19T16:44:18.798Z,2.20
2022-08-19T16:46:47.254Z,2.20
2022-08-19T16:49:52.847Z,2.05
2022-08-19T16:52:12.884Z,2.20
2022-08-19T16:54:41.384Z,2.13
2022-08-19T16:57:11.900Z,1.80
2022-08-19T16:59:39.643Z,1.90
2022-08-19T17:02:15.247Z,2.10
2022-08-19T17:04:41.697Z,1.98
2022-08-19T17:07:09.763Z,2.25
2022-08-19T17:09:36.652Z,2.05
2022-08-19T17:12:04.696Z,1.95
2022-08-19T17:14:31.248Z,2.20
2022-08-19T17:16:57.705Z,2.05
2022-08-19T17:19:24.154Z,2.72
2022-08-19T17:21:50.558Z,2.13
2022-08-19T17:24:17.097Z,2.22
2022-08-19T17:26:43.883Z,2.03
2022-08-19T17:29:10.398Z,2.40
2022-08-19T17:31:37.166Z,2.20
2022-08-19T17:34:03.812Z,2.17
2022-08-19T17:36:32.609Z,2.30
2022-08-19T17:39:00.595Z,2.33
2022-08-19T17:41:28.096Z,2.35
2022-08-19T17:43:55.489Z,3.15
2022-08-19T17:46:22.107Z,2.10
2022-08-19T17:48:52.279Z,2.20
2022-08-19T17:51:25.421Z,2.38
2022-08-19T17:53:53.782Z,2.08
2022-08-19T17:56:21.594Z,2.38
2022-08-19T17:58:57.614Z,2.42
2022-08-19T18:01:27.155Z,2.38
2022-08-19T18:04:07.344Z,2.28
2022-08-19T18:06:36.567Z,2.13
2022-08-19T18:09:05.377Z,2.20
2022-08-19T18:11:31.844Z,2.10
2022-08-19T18:13:58.329Z,2.40
2022-08-19T18:16:24.795Z,2.25
2022-08-19T18:18:52.605Z,2.70
2022-08-19T18:21:19.040Z,2.50
2022-08-19T18:23:46.149Z,2.30
2022-08-19T18:26:12.783Z,2.70
2022-08-19T18:28:39.861Z,2.67
2022-08-19T18:31:17.033Z,3.42
2022-08-19T18:33:44.541Z,3.22
2022-08-19T18:36:11.184Z,2.78
2022-08-19T18:38:56.233Z,2.78
2022-08-19T18:41:41.145Z,2.90
2022-08-19T18:44:26.049Z,2.80
2022-08-19T18:47:13.439Z,3.10
2022-08-19T18:49:40.372Z,2.90
2022-08-19T18:52:06.828Z,3.05
2022-08-19T18:54:33.263Z,2.85
2022-08-19T18:56:59.670Z,3.40
2022-08-19T18:59:27.695Z,3.40
2022-08-19T19:01:57.027Z,3.30
2022-08-19T19:04:30.046Z,3.28
2022-08-19T19:06:56.656Z,3.40
2022-08-19T19:09:24.809Z,3.60
2022-08-19T19:11:54.118Z,3.92
2022-08-19T19:14:48.128Z,3.90
2022-08-19T19:17:15.767Z,3.40
2022-08-19T19:19:43.878Z,3.15
2022-08-19T19:22:13.385Z,3.33
2022-08-19T19:24:44.071Z,3.58
2022-08-19T19:27:12.878Z,3.47
2022-08-19T19:29:40.150Z,3.50
2022-08-19T19:32:16.421Z,3.95
2022-08-19T19:34:42.899Z,3.90
2022-08-19T19:37:09.363Z,3.95
2022-08-19T19:39:46.321Z,3.70
2022-08-19T19:42:20.463Z,3.83
2022-08-19T19:44:49.233Z,3.88
2022-08-19T19:47:16.107Z,3.83
2022-08-19T19:50:03.791Z,4.03
2022-08-19T19:52:29.608Z,4.03
2022-08-19T19:54:56.833Z,4.03
2022-08-19T19:57:23.727Z,4.10
2022-08-19T19:59:51.617Z,3.88
2022-08-19T20:02:18.270Z,4.00
2022-08-19T20:04:44.982Z,3.90
2022-08-19T20:07:11.418Z,3.97
2022-08-19T20:09:58.410Z,4.35
2022-08-19T20:12:24.290Z,4.07
2022-08-19T20:14:50.689Z,4.10
2022-08-19T20:17:17.096Z,3.95
2022-08-19T20:19:44.585Z,4.10
2022-08-19T20:22:12.632Z,4.03
2022-08-19T20:24:42.307Z,3.88
2022-08-19T20:27:09.096Z,4.38
2022-08-19T20:29:39.339Z,4.30
2022-08-19T20:32:09.880Z,3.92
2022-08-19T20:34:37.077Z,4.00
2022-08-19T20:37:03.518Z,4.03
2022-08-19T20:39:29.989Z,4.00
2022-08-19T20:41:56.631Z,4.07
2022-08-19T20:44:25.238Z,4.40
2022-08-19T20:46:54.204Z,3.95
2022-08-19T20:49:22.963Z,4.10
2022-08-19T20:51:54.512Z,4.43
2022-08-19T20:54:21.009Z,3.92
2022-08-19T20:56:47.451Z,4.18
2022-08-19T20:59:13.909Z,4.50
2022-08-19T21:01:40.315Z,4.57
2022-08-19T21:04:06.769Z,4.10
2022-08-19T21:06:33.189Z,4.40
2022-08-19T21:08:59.618Z,4.10
2022-08-19T21:11:26.255Z,4.68
2022-08-19T21:13:52.786Z,4.70
2022-08-19T21:16:19.226Z,4.90
2022-08-19T21:18:45.674Z,4.70
2022-08-19T21:21:12.104Z,5.60
2022-08-19T21:23:38.535Z,6.05
2022-08-19T21:26:04.966Z,5.50
2022-08-19T21:28:35.832Z,5.05
2022-08-19T21:31:05.205Z,5.40
2022-08-19T21:33:32.083Z,5.35
2022-08-19T21:35:59.251Z,5.70
2022-08-19T21:38:25.717Z,6.00
2022-08-19T21:40:52.169Z,5.45
2022-08-19T21:43:18.769Z,6.03
2022-08-19T21:45:46.817Z,5.32
2022-08-19T21:48:14.650Z,6.25
2022-08-19T21:50:42.622Z,5.70
2022-08-19T21:53:11.907Z,6.82
2022-08-19T21:55:43.925Z,6.45
2022-08-19T21:58:11.404Z,6.55
2022-08-19T22:00:38.440Z,7.57
2022-08-19T22:03:05.014Z,7.50
2022-08-19T22:05:33.239Z,8.05
2022-08-19T22:08:01.250Z,8.70
2022-08-19T22:10:30.466Z,7.47
2022-08-19T22:12:58.624Z,7.75
2022-08-19T22:15:27.169Z,7.68
2022-08-19T22:17:54.347Z,9.45
2022-08-19T22:20:24.104Z,9.60
2022-08-19T22:22:56.879Z,9.20
2022-08-19T22:25:31.853Z,10.02
2022-08-19T22:28:03.477Z,12.00
2022-08-19T22:30:33.553Z,11.88
2022-08-19T22:33:02.213Z,12.13
2022-08-19T22:35:31.781Z,11.35
2022-08-19T22:37:59.269Z,11.88
2022-08-19T22:40:27.334Z,12.52
2022-08-19T22:43:00.413Z,12.80
2022-08-19T22:45:27.373Z,12.77
2022-08-19T22:47:54.253Z,13.60
2022-08-19T22:50:21.032Z,12.30
2022-08-19T22:52:51.976Z,12.75
2022-08-19T22:55:18.800Z,13.30
2022-08-19T22:57:45.241Z,13.10
2022-08-19T23:00:13.316Z,12.20
2022-08-19T23:02:51.862Z,13.02
2022-08-19T23:05:21.762Z,12.80
2022-08-19T23:07:52.102Z,12.93
2022-08-19T23:10:27.674Z,12.40
2022-08-19T23:12:56.592Z,12.68
2022-08-19T23:15:25.570Z,12.60
2022-08-19T23:17:53.507Z,13.02
2022-08-19T23:20:19.987Z,12.27
2022-08-19T23:22:48.461Z,13.07
2022-08-19T23:25:18.545Z,11.50
2022-08-19T23:28:03.509Z,13.35
2022-08-19T23:30:33.238Z,13.43
2022-08-19T23:33:02.225Z,13.32
2022-08-19T23:35:33.341Z,13.60
2022-08-19T23:38:01.212Z,14.18
2022-08-19T23:40:28.525Z,14.05
2022-08-19T23:42:55.390Z,13.88
2022-08-19T23:45:24.582Z,14.30
2022-08-19T23:47:51.520Z,13.82
2022-08-19T23:50:20.788Z,14.10
2022-08-19T23:52:49.977Z,13.68
2022-08-19T23:55:19.013Z,14.23
2022-08-19T23:57:45.633Z,14.43
